Time;durP1;ratioP1;P1;durP2;ratioP2;P2;SDS_P1;SDS_P2;PMS_P1;PMS_P2;Temp;Humidity;BMP_temperature;BMP_pressure;BME280_temperature;BME280_humidity;BME280_pressure;Samples;Min_cycle;Max_cycle;Signal;HPM_P1;HPM_P2
2022/03/05 00:07:01;;;;;;;14.90;9.20;;;;;;;-1.00;70.44;100029.56;436879;1272;142927;-59
2022/03/05 00:17:07;;;;;;;20.80;14.60;;;;;;;-1.06;70.62;100027.39;433279;1272;198974;-59
2022/03/05 00:27:13;;;;;;;31.40;20.90;;;;;;;-1.33;70.89;100033.96;432801;1273;144469;-57
2022/03/05 00:37:20;;;;;;;16.00;11.70;;;;;;;-1.65;71.48;100032.14;442011;1273;141079;-59
2022/03/05 00:47:26;;;;;;;17.20;12.60;;;;;;;-1.80;72.11;100039.80;446729;1273;143074;-59
2022/03/05 00:57:32;;;;;;;24.50;13.70;;;;;;;-1.56;72.52;100039.81;445968;1272;144834;-58
2022/03/05 01:07:38;;;;;;;19.80;12.20;;;;;;;-1.23;72.62;100040.08;446785;1272;141968;-59
2022/03/05 01:17:44;;;;;;;17.60;11.50;;;;;;;-1.05;72.79;100033.91;433953;1272;141420;-58
2022/03/05 01:27:49;;;;;;;17.70;10.80;;;;;;;-1.10;72.55;100036.19;428301;1273;143196;-58
2022/03/05 01:37:56;;;;;;;14.90;9.40;;;;;;;-1.24;72.89;100029.27;437424;1274;142005;-58
2022/03/05 01:48:02;;;;;;;19.00;10.90;;;;;;;-1.23;73.03;100035.27;441189;1272;142647;-57
2022/03/05 01:58:08;;;;;;;13.30;10.00;;;;;;;-1.10;72.93;100030.00;441989;1272;142606;-57
2022/03/05 02:08:14;;;;;;;15.40;9.80;;;;;;;-1.00;73.08;100026.98;429346;1273;142952;-59
2022/03/05 02:18:19;;;;;;;12.70;8.90;;;;;;;-1.06;73.09;100026.89;428215;1273;141681;-58
2022/03/05 02:28:27;;;;;;;13.10;9.60;;;;;;;-1.21;73.10;100029.76;429572;1273;141779;-58
2022/03/05 02:38:33;;;;;;;12.60;8.90;;;;;;;-1.32;72.80;100033.29;446943;1271;143831;-60
2022/03/05 02:48:39;;;;;;;14.90;10.00;;;;;;;-1.34;72.87;100033.98;446408;1272;141702;-59
2022/03/05 02:58:45;;;;;;;16.00;9.80;;;;;;;-1.31;72.83;100040.66;447097;1271;142750;-59
2022/03/05 03:08:51;;;;;;;18.70;10.70;;;;;;;-1.31;72.80;100039.29;446539;1273;142092;-59
2022/03/05 03:18:56;;;;;;;11.10;8.60;;;;;;;-1.34;72.91;100041.19;432084;1273;142173;-58
2022/03/05 03:29:02;;;;;;;10.70;7.30;;;;;;;-1.36;72.54;100046.38;443373;1272;141673;-59
2022/03/05 03:39:08;;;;;;;11.80;9.70;;;;;;;-1.40;72.82;100046.23;446357;1272;142658;-59
2022/03/05 03:49:14;;;;;;;13.90;8.40;;;;;;;-1.42;72.67;100043.14;446520;1274;141605;-57
2022/03/05 03:59:19;;;;;;;11.50;7.50;;;;;;;-1.39;72.39;100047.41;446485;1273;141517;-57
2022/03/05 04:09:25;;;;;;;13.40;7.60;;;;;;;-1.43;71.94;100042.30;446017;1272;142742;-58
2022/03/05 04:19:31;;;;;;;9.90;7.30;;;;;;;-1.42;71.76;100053.27;446735;1273;141932;-58
2022/03/05 04:29:37;;;;;;;8.30;5.80;;;;;;;-1.40;71.21;100054.80;446735;1271;143395;-58
2022/03/05 04:39:43;;;;;;;6.70;4.70;;;;;;;-1.43;70.67;100054.83;430178;1273;141233;-58
2022/03/05 04:49:49;;;;;;;8.60;6.20;;;;;;;-1.49;70.21;100061.58;429607;1271;141800;-57
2022/03/05 04:59:55;;;;;;;8.40;6.50;;;;;;;-1.54;69.65;100075.34;429117;1271;141757;-58
2022/03/05 05:10:01;;;;;;;11.30;5.80;;;;;;;-1.59;69.44;100074.35;446091;1271;142544;-59
2022/03/05 05:20:09;;;;;;;10.70;7.00;;;;;;;-1.58;69.03;100073.65;435913;1273;142320;-57
2022/03/05 05:30:15;;;;;;;9.10;6.20;;;;;;;-1.65;68.65;100080.39;434419;1273;141884;-58
2022/03/05 05:40:21;;;;;;;6.30;5.10;;;;;;;-1.70;68.71;100084.88;447061;1271;143568;-60
2022/03/05 05:50:27;;;;;;;8.10;6.70;;;;;;;-1.68;68.42;100093.96;432363;1271;141033;-59
2022/03/05 06:00:33;;;;;;;7.60;4.80;;;;;;;-1.64;67.87;100100.46;428805;1271;141984;-58
2022/03/05 06:10:39;;;;;;;6.70;4.30;;;;;;;-1.55;67.59;100103.67;442745;1271;141738;-58
2022/03/05 06:20:45;;;;;;;3.90;3.50;;;;;;;-1.38;66.86;100105.46;435969;1271;141228;-59
2022/03/05 06:30:51;;;;;;;6.40;4.40;;;;;;;-1.20;66.59;100119.59;435541;1271;142563;-58
2022/03/05 06:40:57;;;;;;;5.00;3.40;;;;;;;-1.05;65.64;100125.52;447171;1271;141702;-58
2022/03/05 06:51:02;;;;;;;3.70;2.70;;;;;;;-0.96;64.94;100133.86;447232;1271;142145;-59
2022/03/05 07:01:08;;;;;;;5.60;3.80;;;;;;;-0.87;64.38;100140.14;447201;1271;141321;-59
2022/03/05 07:11:14;;;;;;;5.20;3.90;;;;;;;-0.80;63.63;100141.12;447017;1273;142544;-58
2022/03/05 07:21:20;;;;;;;7.10;5.10;;;;;;;-0.69;63.07;100146.87;446477;1271;140506;-59
2022/03/05 07:31:26;;;;;;;4.40;3.50;;;;;;;-0.57;62.71;100145.05;438765;1271;141275;-59
2022/03/05 07:41:33;;;;;;;3.50;3.00;;;;;;;-0.43;62.38;100156.61;430021;1271;141084;-57
2022/03/05 07:51:39;;;;;;;3.40;3.00;;;;;;;-0.32;61.99;100159.77;446285;1270;141756;-60
2022/03/05 08:01:45;;;;;;;4.30;2.50;;;;;;;-0.13;61.72;100168.54;447131;1271;142443;-60
2022/03/05 08:11:51;;;;;;;7.00;4.40;;;;;;;0.02;61.24;100176.27;447286;1271;141482;-58
2022/03/05 08:21:57;;;;;;;3.60;3.00;;;;;;;0.25;61.63;100178.09;446484;1271;141531;-58
2022/03/05 08:32:04;;;;;;;7.30;4.00;;;;;;;0.60;61.09;100181.95;446993;1271;207137;-59
2022/03/05 08:42:10;;;;;;;6.30;4.40;;;;;;;1.05;60.32;100183.57;441017;1271;142205;-58
2022/03/05 08:52:19;;;;;;;8.00;3.40;;;;;;;1.74;59.91;100181.90;447142;1271;141216;-59
2022/03/05 09:02:25;;;;;;;7.70;6.00;;;;;;;2.60;58.55;100185.58;444086;1271;142393;-58
2022/03/05 09:12:31;;;;;;;4.50;3.30;;;;;;;3.35;57.00;100188.23;440185;1271;140752;-60
2022/03/05 09:22:37;;;;;;;2.20;2.00;;;;;;;3.18;55.34;100193.46;446864;1272;142221;-59
2022/03/05 09:32:43;;;;;;;2.50;2.20;;;;;;;3.04;54.70;100203.47;446879;1272;141139;-58
2022/03/05 09:42:49;;;;;;;2.60;2.10;;;;;;;3.05;54.19;100202.23;446228;1271;141675;-59
2022/03/05 09:52:55;;;;;;;6.60;4.10;;;;;;;2.94;53.51;100208.02;446688;1272;191616;-58
2022/03/05 10:03:05;;;;;;;2.50;2.20;;;;;;;3.13;53.87;100212.77;442416;1273;140962;-58
2022/03/05 10:13:23;;;;;;;3.90;2.90;;;;;;;2.96;53.08;100214.55;447029;1271;153117;-59
2022/03/05 10:23:32;;;;;;;3.80;3.20;;;;;;;2.69;53.34;100215.30;447073;1271;140922;-63
2022/03/05 10:33:40;;;;;;;5.30;3.40;;;;;;;2.54;52.65;100217.69;446049;1272;142287;-57
2022/03/05 10:43:47;;;;;;;6.20;3.70;;;;;;;2.64;52.46;100215.95;446600;1273;183412;-59
2022/03/05 10:53:53;;;;;;;4.50;3.30;;;;;;;2.78;52.89;100218.58;443956;1271;141825;-57
2022/03/05 11:04:00;;;;;;;3.80;2.90;;;;;;;2.73;52.62;100225.08;435948;1271;141105;-59
2022/03/05 11:14:07;;;;;;;4.10;3.50;;;;;;;2.40;51.90;100225.23;445447;1271;140533;-59
2022/03/05 11:24:14;;;;;;;;;;;;;;;2.23;52.58;100216.75;437981;1273;141887;-60
2022/03/05 11:34:23;;;;;;;6.30;4.30;;;;;;;2.22;52.82;100210.39;440079;1271;126897;-58
2022/03/05 11:44:31;;;;;;;4.30;2.40;;;;;;;2.23;51.58;100208.64;447061;1271;141392;-58
2022/03/05 11:54:37;;;;;;;2.90;2.10;;;;;;;2.11;50.77;100201.59;446425;1270;141473;-60
2022/03/05 12:04:48;;;;;;;4.30;2.60;;;;;;;2.23;50.51;100200.67;447406;1271;141257;-62
2022/03/05 12:15:15;;;;;;;3.10;2.30;;;;;;;2.16;50.47;100193.57;446221;1271;141758;-59
2022/03/05 12:25:21;;;;;;;5.30;3.70;;;;;;;2.26;50.07;100188.17;446870;1273;142627;-59
2022/03/05 12:35:27;;;;;;;3.30;2.10;;;;;;;2.48;49.74;100179.61;446931;1271;140755;-58
2022/03/05 12:45:36;;;;;;;3.30;3.00;;;;;;;2.64;49.49;100175.13;442267;1271;141745;-61
2022/03/05 12:55:44;;;;;;;4.40;3.20;;;;;;;2.82;49.28;100173.86;447187;1270;140922;-60
2022/03/05 13:05:52;;;;;;;4.00;2.60;;;;;;;2.65;48.78;100180.27;447351;1271;141389;-60
2022/03/05 13:15:59;;;;;;;4.40;2.50;;;;;;;2.48;49.08;100183.42;445951;1271;144015;-59
2022/03/05 13:26:06;;;;;;;9.40;3.20;;;;;;;2.50;48.72;100190.12;446771;1272;141639;-62
2022/03/05 13:36:17;;;;;;;4.10;3.20;;;;;;;2.53;48.47;100187.64;446446;1270;144166;-62
2022/03/05 13:46:25;;;;;;;3.80;3.50;;;;;;;2.25;48.11;100170.92;447274;1270;141152;-59
2022/03/05 13:56:43;;;;;;;6.00;3.40;;;;;;;2.26;48.29;100157.96;446987;1272;141391;-60
2022/03/05 14:06:55;;;;;;;4.20;3.10;;;;;;;2.23;48.36;100153.35;439319;1271;141592;-59
2022/03/05 14:17:00;;;;;;;3.70;2.90;;;;;;;2.25;48.73;100156.60;447124;1271;141697;-58
2022/03/05 14:27:16;;;;;;;4.00;3.40;;;;;;;2.19;48.62;100166.21;446220;1271;141945;-60
2022/03/05 14:37:21;;;;;;;4.70;4.00;;;;;;;1.91;49.03;100182.27;444676;1271;142795;-59
2022/03/05 14:47:27;;;;;;;4.90;3.70;;;;;;;1.46;50.23;100188.61;447289;1270;140213;-60
2022/03/05 14:57:33;;;;;;;7.40;5.10;;;;;;;1.12;51.16;100191.38;441779;1270;140809;-61
2022/03/05 15:07:40;;;;;;;5.70;4.70;;;;;;;0.80;51.67;100196.33;442523;1273;140988;-59
2022/03/05 15:17:46;;;;;;;6.20;3.70;;;;;;;0.64;52.05;100196.55;446766;1273;141764;-59
2022/03/05 15:27:52;;;;;;;5.40;4.20;;;;;;;0.52;52.17;100201.19;446129;1273;141551;-59
2022/03/05 15:37:58;;;;;;;7.00;4.40;;;;;;;0.37;52.08;100204.64;446850;1271;141095;-60
2022/03/05 15:48:04;;;;;;;5.70;4.20;;;;;;;0.22;52.06;100207.73;446655;1271;140802;-59
2022/03/05 15:58:10;;;;;;;6.90;4.50;;;;;;;0.10;52.16;100209.60;445932;1272;142306;-60
2022/03/05 16:08:16;;;;;;;7.20;5.30;;;;;;;0.02;52.38;100210.73;436439;1273;141119;-61
2022/03/05 16:18:22;;;;;;;10.60;6.30;;;;;;;-0.08;52.76;100212.37;444460;1271;141827;-59
2022/03/05 16:28:28;;;;;;;8.70;5.70;;;;;;;-0.20;53.52;100208.36;443397;1273;142495;-59
2022/03/05 16:38:35;;;;;;;9.30;5.50;;;;;;;-0.31;54.14;100209.66;446784;1270;140790;-58
2022/03/05 16:48:43;;;;;;;9.10;5.50;;;;;;;-0.40;54.50;100207.67;445955;1271;142199;-59
2022/03/05 16:58:49;;;;;;;9.80;6.40;;;;;;;-0.48;54.95;100208.77;439191;1271;142483;-58
2022/03/05 17:08:55;;;;;;;9.40;6.40;;;;;;;-0.59;55.27;100210.25;430064;1271;141000;-60
2022/03/05 17:19:01;;;;;;;9.40;6.70;;;;;;;-0.73;55.54;100224.27;437002;1270;141334;-59
2022/03/05 17:29:07;;;;;;;9.60;6.30;;;;;;;-0.83;55.69;100224.69;446546;1273;142620;-59
2022/03/05 17:39:13;;;;;;;11.40;6.80;;;;;;;-0.87;55.79;100225.92;445891;1270;141912;-58
2022/03/05 17:49:21;;;;;;;9.90;6.30;;;;;;;-0.89;56.04;100230.08;440403;1271;143041;-58
2022/03/05 17:59:28;;;;;;;10.00;7.20;;;;;;;-0.91;56.01;100232.84;430221;1271;142496;-59
2022/03/05 18:09:34;;;;;;;9.00;6.00;;;;;;;-0.95;56.14;100234.58;429990;1271;142872;-59
2022/03/05 18:19:40;;;;;;;8.90;5.80;;;;;;;-0.97;55.96;100241.64;437689;1271;141757;-59
2022/03/05 18:29:46;;;;;;;10.20;6.50;;;;;;;-0.99;55.75;100241.98;435387;1272;197178;-56
2022/03/05 18:39:52;;;;;;;9.90;5.70;;;;;;;-1.01;55.94;100240.45;431514;1271;140812;-60
2022/03/05 18:49:58;;;;;;;13.10;7.40;;;;;;;-1.05;55.47;100246.66;431568;1271;140804;-58
2022/03/05 19:00:04;;;;;;;10.50;7.70;;;;;;;-1.10;55.70;100246.35;429886;1271;142160;-61
2022/03/05 19:10:12;;;;;;;12.30;7.30;;;;;;;-1.13;55.68;100245.50;429885;1271;198742;-58
2022/03/05 19:20:19;;;;;;;11.10;7.10;;;;;;;-1.17;55.32;100251.19;446108;1271;141518;-59
2022/03/05 19:30:28;;;;;;;11.80;6.80;;;;;;;-1.21;54.84;100261.70;445924;1270;141640;-59
2022/03/05 19:40:36;;;;;;;9.80;6.50;;;;;;;-1.22;54.69;100262.70;443426;1271;140578;-58
2022/03/05 19:50:42;;;;;;;8.30;5.90;;;;;;;-1.24;54.28;100261.52;444347;1271;140898;-58
2022/03/05 20:00:48;;;;;;;8.30;5.00;;;;;;;-1.26;54.22;100267.39;441709;1273;144387;-58
2022/03/05 20:10:55;;;;;;;8.40;5.50;;;;;;;-1.28;53.97;100264.81;433150;1270;140589;-59
2022/03/05 20:21:01;;;;;;;8.70;5.80;;;;;;;-1.31;54.20;100262.61;435665;1272;143637;-57
2022/03/05 20:31:07;;;;;;;10.40;7.40;;;;;;;-1.34;54.06;100261.92;435993;1273;184869;-59
2022/03/05 20:41:12;;;;;;;12.70;6.60;;;;;;;-1.36;53.79;100260.21;438746;1272;141411;-58
2022/03/05 20:51:18;;;;;;;11.10;6.80;;;;;;;-1.36;53.92;100262.79;442885;1272;142062;-61
2022/03/05 21:01:25;;;;;;;11.60;5.70;;;;;;;-1.35;53.84;100261.59;438417;1271;142030;-59
2022/03/05 21:11:31;;;;;;;7.50;5.90;;;;;;;-1.33;53.73;100273.42;446580;1271;144134;-58
2022/03/05 21:21:37;;;;;;;10.30;6.40;;;;;;;-1.30;53.84;100274.27;438246;1271;142058;-58
2022/03/05 21:31:43;;;;;;;12.00;6.80;;;;;;;-1.29;54.26;100271.01;443003;1271;141525;-58
2022/03/05 21:41:49;;;;;;;8.40;5.20;;;;;;;-1.26;54.30;100272.88;446238;1269;141095;-59
2022/03/05 21:51:55;;;;;;;12.70;7.50;;;;;;;-1.22;54.19;100270.29;437174;1271;141984;-58
2022/03/05 22:02:00;;;;;;;15.70;9.90;;;;;;;-1.22;54.40;100273.39;444963;1271;143277;-66
2022/03/05 22:12:08;;;;;;;15.10;7.50;;;;;;;-1.22;54.34;100272.52;436834;1273;141240;-67
2022/03/05 22:22:13;;;;;;;13.50;9.00;;;;;;;-1.23;55.07;100267.55;447323;1271;142840;-62
2022/03/05 22:32:19;;;;;;;23.90;14.80;;;;;;;-1.22;54.98;100261.35;446988;1273;141580;-63
2022/03/05 22:42:26;;;;;;;21.50;12.70;;;;;;;-1.22;55.51;100264.27;446338;1272;141673;-62
2022/03/05 22:52:30;;;;;;;;;;;;;;;-1.21;55.03;100260.15;447096;1273;143251;-63
2022/03/05 23:13:00;;;;;;;23.10;14.30;;;;;;;-1.24;55.65;100252.09;446389;1269;141872;-63
2022/03/05 23:23:06;;;;;;;23.10;14.70;;;;;;;-1.19;55.51;100251.02;443793;1271;141340;-63
2022/03/05 23:33:12;;;;;;;27.40;16.00;;;;;;;-1.22;56.32;100255.34;446382;1273;141834;-63
2022/03/05 23:43:18;;;;;;;27.00;16.10;;;;;;;-1.32;56.39;100249.89;447390;1271;142024;-63
2022/03/05 23:53:24;;;;;;;23.30;13.50;;;;;;;-1.32;56.05;100242.85;447391;1271;144285;-62
